KTMB/TMB METAR and TAF weather

Enter ICAO airport designator
Station Type Date Time Source
KTMB METAR 2021/01/16 02:53 UTC NOAA

KTMB 160253Z 20005KT 10SM SCT100 21/15 A2991 RMK AO2 SLP126 T02110150 51012


Station Type Date Time Source
KTMB Decoded METAR 2021/01/16 02:53 UTC NOAA

KENDALL-TAMIAMI EXEC AIRPORT , FL, United States (KTMB) 25-39N 080-26W 2M
Jan 15, 2021 - 09:53 PM EST / 2021.01.16 0253 UTC
Wind: from the SSW (200 degrees) at 6 MPH (5 KT):0
Visibility: 10 mile(s):0
Sky conditions: partly cloudy
Temperature: 70.0 F (21.1 C)
Dew Point: 59.0 F (15.0 C)
Relative Humidity: 68%
Pressure (altimeter): 29.91 in. Hg (1012 hPa)
Pressure tendency: 0.04 inches (1.2 hPa) higher than three hours ago
ob: KTMB 160253Z 20005KT 10SM SCT100 21/15 A2991 RMK AO2 SLP126 T02110150 51012
cycle: 3

Station Type Date Time Source
KTMB TAF 2021/01/15 21:58 UTC NOAA

TAF
AMD KTMB 152056Z 1521/1618 26006KT P6SM FEW035 SCT250
FM160800 28008KT P6SM SCT025 BKN035
FM161200 30010G18KT P6SM SCT050 BKN100

Example: see airport list